createdAt,value
2017-07-06T00:00:32.471Z,1036.04
2017-07-06T00:01:32.464Z,1036.06
2017-07-06T00:02:32.459Z,1036.05
2017-07-06T00:03:32.451Z,1035.99
2017-07-06T00:04:32.448Z,1035.95
2017-07-06T00:05:32.437Z,1035.95
2017-07-06T00:06:32.436Z,1035.92
2017-07-06T00:07:32.430Z,1035.9
2017-07-06T00:08:32.425Z,1035.93
2017-07-06T00:09:32.419Z,1035.84
2017-07-06T00:10:32.412Z,1035.84
2017-07-06T00:11:32.407Z,1035.83
2017-07-06T00:12:32.402Z,1035.79
2017-07-06T00:13:32.398Z,1035.76
2017-07-06T00:14:32.388Z,1035.78
2017-07-06T00:15:32.386Z,1035.75
2017-07-06T00:16:32.379Z,1035.75
2017-07-06T00:17:32.376Z,1035.76
2017-07-06T00:18:32.369Z,1035.78
2017-07-06T00:19:32.366Z,1035.82
2017-07-06T00:20:32.360Z,1035.85
2017-07-06T00:21:32.356Z,1035.84
2017-07-06T00:22:32.343Z,1035.84
2017-07-06T00:23:32.339Z,1035.82
2017-07-06T00:24:32.333Z,1035.82
2017-07-06T00:25:32.334Z,1035.81
2017-07-06T00:26:32.324Z,1035.83
2017-07-06T00:27:32.321Z,1035.81
2017-07-06T00:28:32.316Z,1035.83
2017-07-06T00:29:32.312Z,1035.87
2017-07-06T00:30:32.303Z,1035.89
2017-07-06T00:31:32.298Z,1035.91
2017-07-06T00:32:32.293Z,1035.91
2017-07-06T00:33:32.287Z,1035.92
2017-07-06T00:34:32.283Z,1035.97
2017-07-06T00:35:32.280Z,1035.96
2017-07-06T00:36:32.269Z,1036.02
2017-07-06T00:37:32.266Z,1036.01
2017-07-06T00:38:32.257Z,1036.03
2017-07-06T00:39:32.257Z,1035.99
2017-07-06T00:40:32.253Z,1036.04
2017-07-06T00:41:32.245Z,1036.06
2017-07-06T00:42:32.238Z,1036.05
2017-07-06T00:43:32.231Z,1036.08
2017-07-06T00:44:32.226Z,1036.13
2017-07-06T00:45:32.219Z,1036.11
2017-07-06T00:46:32.217Z,1036.06
2017-07-06T00:47:32.208Z,1036.09
2017-07-06T00:48:32.208Z,1036.13
2017-07-06T00:49:32.201Z,1036.13
2017-07-06T00:50:32.195Z,1036.13
2017-07-06T00:51:32.187Z,1036.12
2017-07-06T00:52:32.179Z,1036.14
2017-07-06T00:53:32.177Z,1036.1
2017-07-06T00:54:32.170Z,1036.09
2017-07-06T00:55:32.166Z,1036.11
2017-07-06T00:56:32.162Z,1036.08
2017-07-06T00:57:32.155Z,1036.1
2017-07-06T00:58:32.149Z,1036.11
2017-07-06T00:59:32.141Z,1036.13
2017-07-06T01:00:32.138Z,1036.08
2017-07-06T01:01:32.129Z,1036.07
2017-07-06T01:02:32.126Z,1036.08
2017-07-06T01:03:32.118Z,1036.08
2017-07-06T01:04:32.115Z,1036.03
2017-07-06T01:05:32.108Z,1036.05
2017-07-06T01:06:32.100Z,1036.04
2017-07-06T01:07:32.100Z,1035.99
2017-07-06T01:08:32.092Z,1035.94
2017-07-06T01:09:32.088Z,1035.93
2017-07-06T01:10:32.080Z,1035.88
2017-07-06T01:11:32.074Z,1035.78
2017-07-06T01:12:32.066Z,1035.81
2017-07-06T01:13:32.066Z,1035.77
2017-07-06T01:14:32.057Z,1035.79
2017-07-06T01:15:32.050Z,1035.81
2017-07-06T01:16:32.047Z,1035.77
2017-07-06T01:17:32.042Z,1035.74
2017-07-06T01:18:32.035Z,1035.74
2017-07-06T01:19:32.029Z,1035.73
2017-07-06T01:20:32.020Z,1035.7
2017-07-06T01:21:32.019Z,1035.67
2017-07-06T01:22:32.009Z,1035.59
2017-07-06T01:23:32.007Z,1035.59
2017-07-06T01:24:31.998Z,1035.61
2017-07-06T01:25:31.998Z,1035.59
2017-07-06T01:26:31.990Z,1035.61
2017-07-06T01:27:31.983Z,1035.58
2017-07-06T01:28:31.976Z,1035.59
2017-07-06T01:29:31.975Z,1035.62
2017-07-06T01:30:31.968Z,1035.57
2017-07-06T01:31:31.963Z,1035.58
2017-07-06T01:32:31.957Z,1035.61
2017-07-06T01:33:31.950Z,1035.53
2017-07-06T01:34:31.949Z,1035.5
2017-07-06T01:35:31.940Z,1035.52
2017-07-06T01:36:31.935Z,1035.48
2017-07-06T01:37:32.227Z,1035.5
2017-07-06T01:38:31.924Z,1035.53
2017-07-06T01:39:31.917Z,1035.59
2017-07-06T01:40:31.914Z,1035.62
2017-07-06T01:41:31.908Z,1035.68
2017-07-06T01:42:31.904Z,1035.74
2017-07-06T01:43:31.894Z,1035.79
2017-07-06T01:44:31.888Z,1035.88
2017-07-06T01:45:31.888Z,1035.91
2017-07-06T01:46:31.880Z,1035.92
2017-07-06T01:47:31.874Z,1035.97
2017-07-06T01:48:31.866Z,1035.97
2017-07-06T01:49:31.859Z,1035.98
2017-07-06T01:50:31.859Z,1036.05
2017-07-06T01:51:31.852Z,1036.07
2017-07-06T01:52:31.847Z,1036.13
2017-07-06T01:53:31.840Z,1036.14
2017-07-06T01:54:31.834Z,1036.15
2017-07-06T01:55:31.828Z,1036.2
2017-07-06T01:56:31.824Z,1036.21
2017-07-06T01:57:31.818Z,1036.18
2017-07-06T01:58:31.814Z,1036.22
2017-07-06T01:59:31.807Z,1036.2
2017-07-06T02:00:31.799Z,1036.25
2017-07-06T02:01:31.792Z,1036.28
2017-07-06T02:02:31.789Z,1036.29
2017-07-06T02:03:31.786Z,1036.33
2017-07-06T02:04:31.777Z,1036.32
2017-07-06T02:05:31.830Z,1036.31
2017-07-06T02:06:31.764Z,1036.34
2017-07-06T02:07:31.758Z,1036.33
2017-07-06T02:08:31.752Z,1036.35
2017-07-06T02:09:31.746Z,1036.35
2017-07-06T02:10:31.742Z,1036.37
2017-07-06T02:11:31.736Z,1036.37
2017-07-06T02:12:31.729Z,1036.38
2017-07-06T02:13:31.724Z,1036.38
2017-07-06T02:14:31.718Z,1036.44
2017-07-06T02:15:31.711Z,1036.45
2017-07-06T02:16:31.704Z,1036.42
2017-07-06T02:17:31.699Z,1036.44
2017-07-06T02:18:31.753Z,1036.45
2017-07-06T02:19:31.687Z,1036.46
2017-07-06T02:20:31.681Z,1036.45
2017-07-06T02:21:31.675Z,1036.49
2017-07-06T02:22:31.671Z,1036.51
2017-07-06T02:23:31.665Z,1036.54
2017-07-06T02:24:31.655Z,1036.53
2017-07-06T02:25:31.654Z,1036.5
2017-07-06T02:26:31.640Z,1036.47
2017-07-06T02:27:31.641Z,1036.52
2017-07-06T02:28:31.629Z,1036.49
2017-07-06T02:29:31.627Z,1036.5
2017-07-06T02:30:31.617Z,1036.48
2017-07-06T02:31:31.611Z,1036.46
2017-07-06T02:32:31.604Z,1036.48
2017-07-06T02:33:31.601Z,1036.5
2017-07-06T02:34:31.593Z,1036.48
2017-07-06T02:35:31.589Z,1036.49
2017-07-06T02:36:31.581Z,1036.46
2017-07-06T02:37:31.575Z,1036.43
2017-07-06T02:38:31.567Z,1036.45
2017-07-06T02:39:31.564Z,1036.43
2017-07-06T02:40:31.556Z,1036.45
2017-07-06T02:41:31.551Z,1036.43
2017-07-06T02:42:31.546Z,1036.42
2017-07-06T02:43:31.540Z,1036.4
2017-07-06T02:44:31.531Z,1036.42
2017-07-06T02:45:31.528Z,1036.39
2017-07-06T02:46:31.521Z,1036.43
2017-07-06T02:47:31.514Z,1036.4
2017-07-06T02:48:31.508Z,1036.43
2017-07-06T02:49:31.502Z,1036.46
2017-07-06T02:50:31.497Z,1036.5
2017-07-06T02:51:31.488Z,1036.48
2017-07-06T02:52:31.480Z,1036.49
2017-07-06T02:53:31.476Z,1036.52
2017-07-06T02:54:31.472Z,1036.55
2017-07-06T02:55:31.463Z,1036.53
2017-07-06T02:56:31.462Z,1036.49
2017-07-06T02:57:31.450Z,1036.49
2017-07-06T02:58:31.445Z,1036.46
2017-07-06T02:59:31.439Z,1036.43
2017-07-06T03:00:31.430Z,1036.42
2017-07-06T03:01:31.426Z,1036.39
2017-07-06T03:02:31.419Z,1036.39
2017-07-06T03:03:31.415Z,1036.35
2017-07-06T03:04:31.411Z,1036.31
2017-07-06T03:05:31.405Z,1036.29
2017-07-06T03:06:31.397Z,1036.31
2017-07-06T03:07:31.389Z,1036.28
2017-07-06T03:08:31.385Z,1036.26
2017-07-06T03:09:31.377Z,1036.25
2017-07-06T03:10:31.374Z,1036.29
2017-07-06T03:11:31.368Z,1036.28
2017-07-06T03:12:31.363Z,1036.31
2017-07-06T03:13:31.352Z,1036.29
2017-07-06T03:14:31.352Z,1036.23
2017-07-06T03:15:31.343Z,1036.22
2017-07-06T03:16:31.340Z,1036.18
2017-07-06T03:17:31.333Z,1036.17
2017-07-06T03:18:31.324Z,1036.16
2017-07-06T03:19:31.319Z,1036.12
2017-07-06T03:20:31.314Z,1036.06
2017-07-06T03:21:31.306Z,1036.02
2017-07-06T03:22:31.301Z,1035.99
2017-07-06T03:23:31.298Z,1035.94
2017-07-06T03:24:31.290Z,1035.94
2017-07-06T03:25:31.281Z,1035.88
2017-07-06T03:26:31.280Z,1035.84
2017-07-06T03:27:31.269Z,1035.88
2017-07-06T03:28:31.267Z,1035.8
2017-07-06T03:29:31.257Z,1035.71
2017-07-06T03:30:31.255Z,1035.64
2017-07-06T03:31:31.247Z,1035.44
2017-07-06T03:32:31.248Z,1035.25
2017-07-06T03:33:31.239Z,1035.13
2017-07-06T03:34:31.231Z,1035.09
2017-07-06T03:35:31.225Z,1035.16
2017-07-06T03:36:31.220Z,1035.15
2017-07-06T03:37:31.213Z,1035.17
2017-07-06T03:38:31.211Z,1035.12
2017-07-06T03:39:31.207Z,1035.08
2017-07-06T03:40:31.200Z,1034.94
2017-07-06T03:41:31.195Z,1034.65
2017-07-06T03:42:31.192Z,1034.35
2017-07-06T03:43:31.187Z,1034.22
2017-07-06T03:44:31.182Z,1034.07
2017-07-06T03:45:31.178Z,1033.98
2017-07-06T03:46:31.169Z,1033.93
2017-07-06T03:47:31.169Z,1033.94
2017-07-06T03:48:31.163Z,1033.86
2017-07-06T03:49:31.160Z,1033.86
2017-07-06T03:50:31.152Z,1033.86
2017-07-06T03:51:31.152Z,1033.81
2017-07-06T03:52:31.148Z,1033.83
2017-07-06T03:53:31.141Z,1033.72
2017-07-06T03:54:31.138Z,1033.71
2017-07-06T03:55:31.135Z,1033.68
2017-07-06T03:56:31.133Z,1033.74
2017-07-06T03:57:31.128Z,1033.61
2017-07-06T03:58:31.125Z,1033.46
2017-07-06T03:59:31.122Z,1033.37
2017-07-06T04:00:31.120Z,1033.05
2017-07-06T04:01:31.115Z,1032.66
2017-07-06T04:02:31.110Z,1032.49
2017-07-06T04:03:31.110Z,1032.56
2017-07-06T04:04:31.105Z,1032.7
2017-07-06T04:05:31.105Z,1032.8
2017-07-06T04:06:31.097Z,1032.86
2017-07-06T04:07:31.094Z,1032.94
2017-07-06T04:08:31.100Z,1033.01
2017-07-06T04:09:31.092Z,1033.02
2017-07-06T04:10:31.093Z,1033.02
2017-07-06T04:11:31.085Z,1033.08
2017-07-06T04:12:31.084Z,1033.13
2017-07-06T04:13:31.084Z,1033.18
2017-07-06T04:14:31.082Z,1033.24
2017-07-06T04:15:31.078Z,1033.27
2017-07-06T04:16:31.074Z,1033.28
2017-07-06T04:17:31.075Z,1033.35
2017-07-06T04:18:31.071Z,1033.36
2017-07-06T04:19:31.071Z,1033.25
2017-07-06T04:20:31.066Z,1033.26
2017-07-06T04:21:31.067Z,1033.31
2017-07-06T04:22:31.063Z,1033.37
2017-07-06T04:23:31.061Z,1033.44
2017-07-06T04:24:31.059Z,1033.34
2017-07-06T04:25:31.060Z,1033.35
2017-07-06T04:26:31.059Z,1033.41
2017-07-06T04:27:31.052Z,1033.47
2017-07-06T04:28:31.053Z,1033.54
2017-07-06T04:29:31.050Z,1033.65
2017-07-06T04:30:31.045Z,1033.6
2017-07-06T04:31:31.054Z,1033.62
2017-07-06T04:32:31.041Z,1033.61
2017-07-06T04:33:31.045Z,1033.64
2017-07-06T04:34:31.038Z,1033.62
2017-07-06T04:35:31.038Z,1033.51
2017-07-06T04:36:31.032Z,1033.46
2017-07-06T04:37:31.032Z,1033.23
2017-07-06T04:38:31.033Z,1032.7
2017-07-06T04:39:31.028Z,1032.52
2017-07-06T04:40:31.026Z,1032.56
2017-07-06T04:41:31.028Z,1032.34
2017-07-06T04:42:31.023Z,1032.47
2017-07-06T04:43:31.023Z,1032.64
2017-07-06T04:44:31.021Z,1032.76
2017-07-06T04:45:31.020Z,1032.91
2017-07-06T04:46:31.015Z,1032.72
2017-07-06T04:47:31.020Z,1032.67
2017-07-06T04:48:31.012Z,1032.36
2017-07-06T04:49:31.019Z,1032.12
2017-07-06T04:50:31.012Z,1032.15
2017-07-06T04:51:31.012Z,1032.19
2017-07-06T04:52:31.009Z,1032.2
2017-07-06T04:53:31.011Z,1032.1
2017-07-06T04:54:31.009Z,1032.03
2017-07-06T04:55:31.006Z,1031.97
2017-07-06T04:56:31.005Z,1031.88
2017-07-06T04:57:31.009Z,1031.88
2017-07-06T04:58:31.009Z,1031.87
2017-07-06T04:59:31.005Z,1031.86
2017-07-06T05:00:31.008Z,1031.88
2017-07-06T05:01:31.008Z,1031.89
2017-07-06T05:02:31.007Z,1031.93
2017-07-06T05:03:31.004Z,1031.99
2017-07-06T05:04:31.008Z,1032.05
2017-07-06T05:05:31.006Z,1032.09
2017-07-06T05:06:31.011Z,1032.1
2017-07-06T05:07:31.005Z,1031.93
2017-07-06T05:08:31.005Z,1031.96
2017-07-06T05:09:31.011Z,1032.07
2017-07-06T05:10:31.008Z,1032.11
2017-07-06T05:11:31.008Z,1032.09
2017-07-06T05:12:31.005Z,1032.13
2017-07-06T05:13:31.011Z,1032.17
2017-07-06T05:14:31.012Z,1032.17
2017-07-06T05:15:31.007Z,1032.17
2017-07-06T05:16:31.011Z,1032.25
2017-07-06T05:17:31.008Z,1032.27
2017-07-06T05:18:31.009Z,1032.32
2017-07-06T05:19:31.007Z,1032.35
2017-07-06T05:20:31.014Z,1032.34
2017-07-06T05:21:31.008Z,1032.28
2017-07-06T05:22:31.012Z,1032.28
2017-07-06T05:23:31.011Z,1032.07
2017-07-06T05:24:31.012Z,1032.02
2017-07-06T05:25:31.012Z,1032
2017-07-06T05:26:31.013Z,1032
2017-07-06T05:27:31.019Z,1031.98
2017-07-06T05:28:31.016Z,1032.04
2017-07-06T05:29:31.011Z,1032.07
2017-07-06T05:30:31.011Z,1032.07
2017-07-06T05:31:31.014Z,1032.07
2017-07-06T05:32:31.015Z,1032.09
2017-07-06T05:33:31.011Z,1032.06
2017-07-06T05:34:31.016Z,1032.04
2017-07-06T05:35:31.013Z,1031.98
2017-07-06T05:36:31.018Z,1031.98
2017-07-06T05:37:31.018Z,1031.95
2017-07-06T05:38:31.017Z,1031.38
2017-07-06T05:39:31.018Z,1031.32
2017-07-06T05:40:31.018Z,1030.75
2017-07-06T05:41:31.019Z,1030.55
2017-07-06T05:42:31.024Z,1030.54
2017-07-06T05:43:31.023Z,1030.78
2017-07-06T05:44:31.025Z,1030.46
2017-07-06T05:45:31.026Z,1030.32
2017-07-06T05:46:31.026Z,1030.27
2017-07-06T05:47:31.031Z,1030.74
2017-07-06T05:48:31.033Z,1029.9
2017-07-06T05:49:31.036Z,1030.23
2017-07-06T05:50:31.060Z,1029.78
2017-07-06T05:51:31.042Z,1029.8
2017-07-06T05:52:31.043Z,1029.96
2017-07-06T05:53:31.048Z,1030.95
2017-07-06T05:54:31.051Z,1029.18
2017-07-06T05:55:31.055Z,1029.25
2017-07-06T05:56:31.059Z,1029.41
2017-07-06T05:57:31.070Z,1027.99
2017-07-06T05:58:31.066Z,1028.1
2017-07-06T05:59:31.074Z,1027.87
2017-07-06T06:00:31.080Z,1029.05
2017-07-06T06:01:31.084Z,1027.92
2017-07-06T06:02:31.088Z,1028.37
2017-07-06T06:03:31.100Z,1028.09
2017-07-06T06:04:31.105Z,1028.33
2017-07-06T06:05:31.110Z,1028.75
2017-07-06T06:06:31.114Z,1029
2017-07-06T06:07:31.127Z,1028.08
2017-07-06T06:08:31.130Z,1028
2017-07-06T06:09:31.138Z,1029
2017-07-06T06:10:31.148Z,1028.37
2017-07-06T06:11:31.158Z,1028.4
2017-07-06T06:12:31.166Z,1028.52
2017-07-06T06:13:31.172Z,1028.75
2017-07-06T06:14:31.182Z,1028.34
2017-07-06T06:15:31.189Z,1028.6
2017-07-06T06:16:31.198Z,1028.55
2017-07-06T06:17:31.206Z,1028.5
2017-07-06T06:18:31.211Z,1027.72
2017-07-06T06:19:31.222Z,1027.94
2017-07-06T06:20:31.231Z,1027.91
2017-07-06T06:21:31.244Z,1028.87
2017-07-06T06:22:31.247Z,1028.18
2017-07-06T06:23:31.259Z,1027.98
2017-07-06T06:24:31.267Z,1028.73
2017-07-06T06:25:31.274Z,1027.74
2017-07-06T06:26:31.287Z,1027.25
2017-07-06T06:27:31.294Z,1026.86
2017-07-06T06:28:31.305Z,1026.72
2017-07-06T06:29:31.312Z,1026.82
2017-07-06T06:30:31.324Z,1026.99
2017-07-06T06:31:31.334Z,1026.64
2017-07-06T06:32:31.401Z,1026.34
2017-07-06T06:33:31.356Z,1025.9
2017-07-06T06:34:31.362Z,1025.91
2017-07-06T06:35:31.383Z,1025.79
2017-07-06T06:36:31.391Z,1025.65
2017-07-06T06:37:31.457Z,1025.52
2017-07-06T06:38:31.414Z,1025.32
2017-07-06T06:39:31.428Z,1025.33
2017-07-06T06:40:31.438Z,1025.17
2017-07-06T06:41:31.455Z,1025.09
2017-07-06T06:42:31.467Z,1024.99
2017-07-06T06:43:31.486Z,1024.88
2017-07-06T06:44:31.495Z,1024.78
2017-07-06T06:45:31.513Z,1024.79
2017-07-06T06:46:31.525Z,1024.79
2017-07-06T06:47:31.543Z,1024.55
2017-07-06T06:48:31.560Z,1024.7
2017-07-06T06:49:31.581Z,1024.78
2017-07-06T06:50:31.593Z,1024.72
2017-07-06T06:51:31.613Z,1024.67
2017-07-06T06:52:31.630Z,1024.61
2017-07-06T06:53:31.645Z,1024.64
2017-07-06T06:54:31.661Z,1024.76
2017-07-06T06:55:31.681Z,1024.71
2017-07-06T06:56:31.695Z,1024.82
2017-07-06T06:57:31.716Z,1024.81
2017-07-06T06:58:31.735Z,1025.03
2017-07-06T06:59:31.756Z,1025.21
2017-07-06T07:00:31.770Z,1025.08
2017-07-06T07:01:31.792Z,1025.04
2017-07-06T07:02:31.808Z,1025.29
2017-07-06T07:03:31.829Z,1025.4
2017-07-06T07:04:31.845Z,1025.22
2017-07-06T07:05:31.868Z,1025.4
2017-07-06T07:06:31.884Z,1025.31
2017-07-06T07:07:31.902Z,1025.26
2017-07-06T07:08:31.919Z,1025.07
2017-07-06T07:09:31.938Z,1025.15
2017-07-06T07:10:31.961Z,1025.27
2017-07-06T07:11:31.977Z,1025.51
2017-07-06T07:12:31.999Z,1025.54
2017-07-06T07:13:32.016Z,1025.58
2017-07-06T07:14:32.035Z,1025.62
2017-07-06T07:15:32.053Z,1025.66
2017-07-06T07:16:32.070Z,1025.7
2017-07-06T07:17:32.093Z,1025.67
2017-07-06T07:18:32.108Z,1025.49
2017-07-06T07:19:32.127Z,1025.44
2017-07-06T07:20:32.146Z,1025.26
2017-07-06T07:21:32.168Z,1025.25
2017-07-06T07:22:32.185Z,1025.29
2017-07-06T07:23:32.203Z,1025.28
2017-07-06T07:24:32.220Z,1025.14
2017-07-06T07:25:32.240Z,1025.28
2017-07-06T07:26:32.261Z,1025.1
2017-07-06T07:27:32.282Z,1024.99
2017-07-06T07:28:32.301Z,1025.05
2017-07-06T07:29:32.319Z,1025.18
2017-07-06T07:30:32.338Z,1025.21
2017-07-06T07:31:32.359Z,1025.19
2017-07-06T07:32:32.378Z,1025.31
2017-07-06T07:33:32.395Z,1025.44
2017-07-06T07:34:32.415Z,1025.65
2017-07-06T07:35:32.437Z,1026.28
2017-07-06T07:36:32.456Z,1026.99
2017-07-06T07:37:32.468Z,1027.5
2017-07-06T07:38:32.491Z,1027.95
2017-07-06T07:39:32.510Z,1028.38
2017-07-06T07:40:32.530Z,1028.65
2017-07-06T07:41:32.545Z,1028.85
2017-07-06T07:42:32.560Z,1028.96
2017-07-06T07:43:32.577Z,1029.17
2017-07-06T07:44:32.593Z,1029.25
2017-07-06T07:45:32.610Z,1029.49
2017-07-06T07:46:32.628Z,1029.47
2017-07-06T07:47:32.642Z,1029.77
2017-07-06T07:48:32.657Z,1030.03
2017-07-06T07:49:32.669Z,1030.2
2017-07-06T07:50:32.689Z,1030.34
2017-07-06T07:51:32.700Z,1030.34
2017-07-06T07:52:32.714Z,1030.3
2017-07-06T07:53:32.725Z,1030.02
2017-07-06T07:54:32.741Z,1029.71
2017-07-06T07:55:32.749Z,1029.78
2017-07-06T07:56:32.762Z,1029.92
2017-07-06T07:57:32.776Z,1030.11
2017-07-06T07:58:32.791Z,1030.21
2017-07-06T07:59:32.801Z,1030.08
2017-07-06T08:00:32.818Z,1030.13
2017-07-06T08:01:32.827Z,1030.38
2017-07-06T08:02:32.840Z,1029.33
2017-07-06T08:03:32.849Z,1028.7
2017-07-06T08:04:32.866Z,1028.2
2017-07-06T08:05:32.875Z,1029.14
2017-07-06T08:06:32.892Z,1028.54
2017-07-06T08:07:32.902Z,1027.96
2017-07-06T08:08:32.915Z,1027.59
2017-07-06T08:09:32.930Z,1027.26
2017-07-06T08:10:32.943Z,1027.18
2017-07-06T08:11:32.950Z,1027.08
2017-07-06T08:12:32.964Z,1026.97
2017-07-06T08:13:32.977Z,1026.91
2017-07-06T08:14:32.997Z,1026.68
2017-07-06T08:15:33.010Z,1026.41
2017-07-06T08:16:33.025Z,1026.08
2017-07-06T08:17:33.036Z,1025.95
2017-07-06T08:18:33.055Z,1025.91
2017-07-06T08:19:33.069Z,1025.85
2017-07-06T08:20:33.086Z,1025.94
2017-07-06T08:21:33.102Z,1026.01
2017-07-06T08:22:33.118Z,1025.88
2017-07-06T08:23:33.134Z,1025.66
2017-07-06T08:24:33.148Z,1025.3
2017-07-06T08:25:33.163Z,1024.93
2017-07-06T08:26:33.183Z,1024.75
2017-07-06T08:27:33.202Z,1024.63
2017-07-06T08:28:33.220Z,1024.77
2017-07-06T08:29:33.235Z,1025.02
2017-07-06T08:30:33.250Z,1025.3
2017-07-06T08:31:33.270Z,1025.58
2017-07-06T08:32:33.287Z,1025.53
2017-07-06T08:33:33.302Z,1025.61
2017-07-06T08:34:33.326Z,1025.58
2017-07-06T08:35:33.339Z,1025.55
2017-07-06T08:36:33.360Z,1025.69
2017-07-06T08:37:33.374Z,1025.8
2017-07-06T08:38:33.396Z,1025.91
2017-07-06T08:39:33.413Z,1026.09
2017-07-06T08:40:33.432Z,1026.25
2017-07-06T08:41:33.446Z,1026.29
2017-07-06T08:42:33.465Z,1026.22
2017-07-06T08:43:33.483Z,1026.12
2017-07-06T08:44:33.504Z,1026.08
2017-07-06T08:45:33.518Z,1026.12
2017-07-06T08:46:33.535Z,1026.29
2017-07-06T08:47:33.554Z,1026.4
2017-07-06T08:48:33.572Z,1027.02
2017-07-06T08:49:33.590Z,1027.33
2017-07-06T08:50:33.601Z,1027.2
2017-07-06T08:51:33.620Z,1027.11
2017-07-06T08:52:33.635Z,1027.1
2017-07-06T08:53:33.652Z,1026.99
2017-07-06T08:54:33.671Z,1026.87
2017-07-06T08:55:33.685Z,1026.61
2017-07-06T08:56:33.712Z,1026.62
2017-07-06T08:57:33.721Z,1026.86
2017-07-06T08:58:33.736Z,1027
2017-07-06T08:59:33.753Z,1027.47
2017-07-06T09:00:33.771Z,1027.96
2017-07-06T09:01:33.784Z,1028.49
2017-07-06T09:02:33.800Z,1028.81
2017-07-06T09:03:33.815Z,1029.14
2017-07-06T09:05:33.844Z,1029.63
2017-07-06T09:06:33.856Z,1029.83
2017-07-06T09:07:33.875Z,1029.96
2017-07-06T09:08:33.888Z,1030.05
2017-07-06T09:09:33.902Z,1030.2
2017-07-06T09:10:33.916Z,1030.36
2017-07-06T09:11:33.927Z,1030.5
2017-07-06T09:12:33.942Z,1030.64
2017-07-06T09:13:33.955Z,1030.74
2017-07-06T09:14:33.967Z,1030.82
2017-07-06T09:15:33.978Z,1030.96
2017-07-06T09:16:33.991Z,1031.09
2017-07-06T09:17:34.001Z,1031.17
2017-07-06T09:18:34.019Z,1031.21
2017-07-06T09:19:34.026Z,1031.22
2017-07-06T09:20:34.038Z,1031.27
2017-07-06T09:21:34.049Z,1031.29
2017-07-06T09:22:34.060Z,1031.32
2017-07-06T09:23:34.068Z,1031.29
2017-07-06T09:24:34.088Z,1031.34
2017-07-06T09:25:34.093Z,1031.34
2017-07-06T09:26:34.102Z,1031.32
2017-07-06T09:27:34.114Z,1031.39
2017-07-06T09:28:34.125Z,1031.51
2017-07-06T09:29:34.137Z,1031.53
2017-07-06T09:30:34.152Z,1031.58
2017-07-06T09:31:34.151Z,1031.6
2017-07-06T09:32:34.166Z,1031.63
2017-07-06T09:33:34.172Z,1031.59
2017-07-06T09:34:34.184Z,1031.58
2017-07-06T09:35:34.194Z,1031.6
2017-07-06T09:36:34.206Z,1031.53
2017-07-06T09:37:34.211Z,1031.52
2017-07-06T09:38:34.223Z,1031.54
2017-07-06T09:39:34.231Z,1031.62
2017-07-06T09:40:34.241Z,1031.63
2017-07-06T09:41:34.250Z,1031.76
2017-07-06T09:42:34.261Z,1031.82
2017-07-06T09:43:34.273Z,1031.83
2017-07-06T09:45:34.290Z,1032
2017-07-06T09:46:34.297Z,1032.06
2017-07-06T09:47:34.307Z,1032.06
2017-07-06T09:48:34.315Z,1032.04
2017-07-06T09:49:34.325Z,1031.99
2017-07-06T09:50:34.335Z,1031.91
2017-07-06T09:51:34.340Z,1031.89
2017-07-06T09:52:34.351Z,1031.8
2017-07-06T09:53:34.361Z,1031.73
2017-07-06T09:54:34.367Z,1031.74
2017-07-06T09:55:34.372Z,1031.78
2017-07-06T09:56:34.382Z,1031.77
2017-07-06T09:57:34.399Z,1031.74
2017-07-06T09:58:34.403Z,1031.7
2017-07-06T10:00:34.421Z,1031.6
2017-07-06T10:01:34.429Z,1031.51
2017-07-06T10:02:34.437Z,1031.46
2017-07-06T10:03:34.445Z,1031.47
2017-07-06T10:04:34.454Z,1031.51
2017-07-06T10:05:34.462Z,1031.5
2017-07-06T10:06:34.469Z,1031.45
2017-07-06T10:07:34.478Z,1031.43
2017-07-06T10:08:34.490Z,1031.5
2017-07-06T10:09:34.497Z,1031.6
2017-07-06T10:10:34.504Z,1031.71
2017-07-06T10:11:34.510Z,1031.86
2017-07-06T10:12:34.523Z,1032.01
2017-07-06T10:13:34.527Z,1032.16
2017-07-06T10:14:34.536Z,1032.24
2017-07-06T10:15:34.547Z,1032.27
2017-07-06T10:16:34.557Z,1032.33
2017-07-06T10:17:34.562Z,1032.38
2017-07-06T10:18:34.567Z,1032.41
2017-07-06T10:19:34.575Z,1032.49
2017-07-06T10:20:34.587Z,1032.56
2017-07-06T10:21:34.595Z,1032.65
2017-07-06T10:22:34.602Z,1032.7
2017-07-06T10:23:34.608Z,1032.83
2017-07-06T10:24:34.618Z,1032.88
2017-07-06T10:25:34.624Z,1032.94
2017-07-06T10:26:34.633Z,1033
2017-07-06T10:27:34.636Z,1033.03
2017-07-06T10:28:34.645Z,1033.08
2017-07-06T10:29:34.951Z,1033.09
2017-07-06T10:30:34.662Z,1033.14
2017-07-06T10:31:34.667Z,1033.12
2017-07-06T10:32:34.670Z,1033.1
2017-07-06T10:33:34.680Z,1033.11
2017-07-06T10:34:34.686Z,1033.18
2017-07-06T10:35:34.696Z,1033.19
2017-07-06T10:36:34.700Z,1033.25
2017-07-06T10:37:34.707Z,1033.35
2017-07-06T10:38:34.710Z,1033.34
2017-07-06T10:39:34.718Z,1033.36
2017-07-06T10:40:34.724Z,1033.4
2017-07-06T10:41:34.730Z,1033.39
2017-07-06T10:42:34.739Z,1033.35
2017-07-06T10:43:34.744Z,1033.34
2017-07-06T10:44:34.751Z,1033.29
2017-07-06T10:45:34.754Z,1033.21
2017-07-06T10:46:34.762Z,1033.15
2017-07-06T10:47:34.766Z,1033.12
2017-07-06T10:48:34.773Z,1033.14
2017-07-06T10:49:34.775Z,1033.05
2017-07-06T10:50:34.785Z,1032.95
2017-07-06T10:51:34.790Z,1032.82
2017-07-06T10:52:34.796Z,1032.74
2017-07-06T10:53:34.802Z,1032.63
2017-07-06T10:54:34.806Z,1032.48
2017-07-06T10:55:34.815Z,1032.32
2017-07-06T10:56:34.819Z,1032.23
2017-07-06T10:57:34.825Z,1032.14
2017-07-06T10:58:34.835Z,1032.1
2017-07-06T10:59:34.988Z,1032.04
2017-07-06T11:00:34.840Z,1032.04
2017-07-06T11:01:34.851Z,1031.92
2017-07-06T11:02:34.852Z,1031.84
2017-07-06T11:03:34.865Z,1031.72
2017-07-06T11:04:34.869Z,1031.66
2017-07-06T11:05:34.876Z,1031.62
2017-07-06T11:06:34.881Z,1031.67
2017-07-06T11:07:34.889Z,1031.71
2017-07-06T11:08:34.896Z,1031.82
2017-07-06T11:09:34.900Z,1031.91
2017-07-06T11:10:34.910Z,1032
2017-07-06T11:11:34.918Z,1032.03
2017-07-06T11:12:34.924Z,1031.99
2017-07-06T11:13:34.934Z,1031.98
2017-07-06T11:14:34.935Z,1031.99
2017-07-06T11:15:34.946Z,1032.03
2017-07-06T11:16:34.948Z,1032.07
2017-07-06T11:17:34.961Z,1032.1
2017-07-06T11:18:34.962Z,1032.18
2017-07-06T11:19:34.973Z,1032.22
2017-07-06T11:20:34.976Z,1032.3
2017-07-06T11:21:34.983Z,1032.38
2017-07-06T11:22:34.990Z,1032.43
2017-07-06T11:23:34.998Z,1032.53
2017-07-06T11:24:35.001Z,1032.58
2017-07-06T11:25:35.004Z,1032.59
2017-07-06T11:26:35.010Z,1032.67
2017-07-06T11:27:35.019Z,1032.72
2017-07-06T11:28:35.024Z,1032.73
2017-07-06T11:29:35.029Z,1032.76
2017-07-06T11:30:35.080Z,1032.76
2017-07-06T11:31:35.045Z,1032.77
2017-07-06T11:32:35.049Z,1032.81
2017-07-06T11:33:35.052Z,1032.87
2017-07-06T11:34:35.061Z,1032.89
2017-07-06T11:35:35.065Z,1032.87
2017-07-06T11:36:35.069Z,1032.82
2017-07-06T11:37:35.079Z,1032.78
2017-07-06T11:38:35.084Z,1032.73
2017-07-06T11:39:35.091Z,1032.72
2017-07-06T11:40:35.094Z,1032.67
2017-07-06T11:41:35.107Z,1032.65
2017-07-06T11:42:35.108Z,1032.64
2017-07-06T11:43:35.115Z,1032.61
2017-07-06T11:44:35.118Z,1032.61
2017-07-06T11:45:35.129Z,1032.54
2017-07-06T11:46:35.129Z,1032.54
2017-07-06T11:47:35.137Z,1032.49
2017-07-06T11:48:35.143Z,1032.4
2017-07-06T11:49:35.148Z,1032.35
2017-07-06T11:50:35.154Z,1032.24
2017-07-06T11:51:35.163Z,1032.16
2017-07-06T11:52:35.167Z,1032.16
2017-07-06T11:53:35.174Z,1032.1
2017-07-06T11:54:35.178Z,1032.05
2017-07-06T11:55:35.181Z,1032.03
2017-07-06T11:56:35.191Z,1031.99
2017-07-06T11:57:35.194Z,1031.95
2017-07-06T11:58:35.202Z,1031.93
2017-07-06T11:59:35.208Z,1031.88
2017-07-06T12:00:35.213Z,1031.81
2017-07-06T12:01:35.226Z,1031.76
2017-07-06T12:02:35.223Z,1031.71
2017-07-06T12:03:35.233Z,1031.69
2017-07-06T12:04:35.237Z,1031.68
2017-07-06T12:05:35.244Z,1031.69
2017-07-06T12:06:35.246Z,1031.7
2017-07-06T12:07:35.262Z,1031.64
2017-07-06T12:08:35.264Z,1031.55
2017-07-06T12:09:35.271Z,1031.49
2017-07-06T12:10:35.273Z,1031.49
2017-07-06T12:11:35.279Z,1031.5